Time;durP1;ratioP1;P1;durP2;ratioP2;P2;SDS_P1;SDS_P2;PMS_P1;PMS_P2;Temp;Humidity;BMP_temperature;BMP_pressure;BME280_temperature;BME280_humidity;BME280_pressure;Samples;Min_cycle;Max_cycle;Signal;HPM_P1;HPM_P2
2023/10/31 00:01:34;;;;;;;0.40;0.40;;;13.10;99.90;;;13.24;100.00;99149.34;5244770;28;20067;-47
2023/10/31 00:04:06;;;;;;;0.35;0.35;;;13.20;99.90;;;13.23;100.00;99155.41;5244635;28;20056;-46
2023/10/31 00:06:39;;;;;;;0.50;0.32;;;13.10;99.90;;;13.23;100.00;99155.41;5247735;28;20097;-48
2023/10/31 00:09:11;;;;;;;0.32;0.32;;;13.10;99.90;;;13.24;100.00;99170.25;5242346;28;20048;-46
2023/10/31 00:11:45;;;;;;;0.73;0.50;;;13.10;99.90;;;13.25;100.00;99177.22;5244826;28;20422;-45
2023/10/31 00:14:20;;;;;;;0.63;0.47;;;13.10;99.90;;;13.25;100.00;99178.97;5239953;28;20057;-47
2023/10/31 00:16:53;;;;;;;0.70;0.70;;;13.10;99.90;;;13.23;100.00;99181.56;5242119;28;20519;-47
2023/10/31 00:19:25;;;;;;;0.70;0.60;;;13.10;99.90;;;13.22;100.00;99178.97;5247220;28;20342;-46
2023/10/31 00:21:58;;;;;;;1.95;0.70;;;13.10;99.90;;;13.20;100.00;99184.22;5245164;28;20445;-47
2023/10/31 00:24:31;;;;;;;0.75;0.75;;;13.10;99.90;;;13.19;100.00;99179.81;5243670;28;20059;-47
2023/10/31 00:27:05;;;;;;;0.68;0.68;;;13.10;99.90;;;13.18;100.00;99188.56;5245587;28;20546;-46
2023/10/31 00:29:38;;;;;;;0.90;0.70;;;13.10;99.90;;;13.18;100.00;99191.16;5260516;28;20048;-46
2023/10/31 00:32:14;;;;;;;0.80;0.73;;;13.10;99.90;;;13.18;100.00;99191.16;5246698;28;20465;-46
2023/10/31 00:34:46;;;;;;;1.08;0.80;;;13.10;99.90;;;13.17;100.00;99189.44;5247354;28;20051;-46
2023/10/31 00:37:19;;;;;;;0.65;0.65;;;13.10;99.90;;;13.17;100.00;99189.44;5246244;28;20043;-46
2023/10/31 00:39:51;;;;;;;0.73;0.73;;;13.10;99.90;;;13.16;100.00;99192.03;5245608;28;20044;-47
2023/10/31 00:42:25;;;;;;;0.52;0.52;;;13.00;99.90;;;13.16;100.00;99195.50;5246373;28;20450;-47
2023/10/31 00:44:57;;;;;;;0.70;0.70;;;13.00;99.90;;;13.17;100.00;99199.91;5245579;28;20052;-46
2023/10/31 00:47:29;;;;;;;0.63;0.63;;;13.00;99.90;;;13.19;100.00;99207.75;5244584;28;20072;-46
2023/10/31 00:50:02;;;;;;;0.60;0.60;;;13.10;99.90;;;13.18;100.00;99206.88;5242967;28;20059;-47
2023/10/31 00:52:35;;;;;;;0.77;0.70;;;13.10;99.90;;;13.19;100.00;99213.84;5242592;28;20304;-47
2023/10/31 00:55:08;;;;;;;1.55;0.77;;;13.10;99.90;;;13.19;100.00;99220.81;5240726;28;20515;-47
2023/10/31 00:57:42;;;;;;;0.70;0.70;;;13.10;99.90;;;13.17;100.00;99219.94;5246314;28;20048;-46
2023/10/31 01:00:15;;;;;;;0.80;0.80;;;13.10;99.90;;;13.14;100.00;99222.56;5241327;28;20134;-46
2023/10/31 01:02:48;;;;;;;1.13;0.70;;;13.00;99.90;;;13.14;100.00;99231.28;5239631;28;20498;-46
2023/10/31 01:05:20;;;;;;;0.70;0.70;;;13.10;99.90;;;13.10;100.00;99226.91;5244592;28;20051;-47
2023/10/31 01:07:52;;;;;;;1.02;1.02;;;13.00;99.90;;;13.08;100.00;99228.66;5257960;28;20047;-47
2023/10/31 01:10:25;;;;;;;1.20;0.75;;;13.00;99.90;;;13.06;100.00;99235.66;5246034;28;20052;-47
2023/10/31 01:12:59;;;;;;;0.90;0.80;;;13.00;99.90;;;13.00;100.00;99241.75;5246415;28;20047;-46
2023/10/31 01:15:32;;;;;;;1.05;0.93;;;13.00;99.90;;;12.98;100.00;99245.25;5245983;28;20048;-47
2023/10/31 01:18:05;;;;;;;0.90;0.90;;;12.90;99.90;;;12.98;100.00;99245.25;5248389;28;20491;-47
2023/10/31 01:20:38;;;;;;;1.08;0.85;;;12.90;99.90;;;12.97;100.00;99239.09;5240858;28;20044;-47
2023/10/31 01:23:10;;;;;;;1.77;0.85;;;12.90;99.90;;;12.94;100.00;99244.34;5261673;28;20044;-47
2023/10/31 01:25:44;;;;;;;2.13;0.98;;;12.90;99.90;;;12.91;100.00;99246.06;5242522;28;20065;-47
2023/10/31 01:28:18;;;;;;;2.38;0.82;;;12.80;99.90;;;12.87;100.00;99257.44;5245980;28;20105;-47
2023/10/31 01:30:51;;;;;;;1.17;1.02;;;12.80;99.90;;;12.82;100.00;99259.16;5241108;28;20074;-46
2023/10/31 01:33:23;;;;;;;1.45;0.90;;;12.80;99.90;;;12.75;100.00;99256.53;5241260;28;20547;-47
2023/10/31 01:35:56;;;;;;;1.00;0.73;;;12.70;99.90;;;12.72;100.00;99258.28;5237494;28;20403;-47
2023/10/31 01:38:31;;;;;;;1.73;1.00;;;12.70;99.90;;;12.67;100.00;99263.50;5261627;28;20145;-48
2023/10/31 01:41:04;;;;;;;1.25;0.93;;;12.70;99.90;;;12.63;100.00;99264.34;5242870;28;20036;-47
2023/10/31 01:43:39;;;;;;;1.83;1.13;;;12.60;99.90;;;12.58;100.00;99266.06;5245709;28;20048;-47
2023/10/31 01:46:12;;;;;;;1.05;0.85;;;12.50;99.90;;;12.55;100.00;99271.31;5242011;28;20044;-47
2023/10/31 01:48:44;;;;;;;0.80;0.77;;;12.50;99.90;;;12.53;100.00;99269.56;5240614;28;20052;-47
2023/10/31 01:51:17;;;;;;;2.20;1.08;;;12.50;99.90;;;12.51;100.00;99266.94;5245065;28;20048;-47
2023/10/31 01:53:49;;;;;;;1.20;0.95;;;12.50;99.90;;;12.51;100.00;99259.09;5245498;28;20427;-47
2023/10/31 01:56:26;;;;;;;0.70;0.70;;;12.40;99.90;;;12.50;100.00;99258.22;5245376;28;20050;-48
2023/10/31 01:59:00;;;;;;;1.90;1.15;;;12.40;99.90;;;12.49;100.00;99260.84;5258261;28;20041;-47
2023/10/31 02:01:33;;;;;;;0.63;0.60;;;12.40;99.90;;;12.45;100.00;99252.13;5260598;28;20055;-47
2023/10/31 02:04:06;;;;;;;0.52;0.52;;;12.40;99.90;;;12.41;100.00;99252.97;5240072;28;20128;-46
2023/10/31 02:06:42;;;;;;;1.40;0.73;;;12.40;99.90;;;12.36;100.00;99254.69;5243532;28;20052;-47
2023/10/31 02:09:14;;;;;;;1.00;0.90;;;12.30;99.90;;;12.31;100.00;99247.72;5240561;28;20140;-47
2023/10/31 02:11:46;;;;;;;0.93;0.73;;;12.30;99.90;;;12.25;100.00;99256.41;5245286;28;20079;-47
2023/10/31 02:14:20;;;;;;;0.73;0.57;;;12.20;99.90;;;12.19;100.00;99252.03;5251838;28;20035;-47
2023/10/31 02:16:52;;;;;;;0.80;0.63;;;12.20;99.90;;;12.13;100.00;99248.53;5240103;28;20042;-47
2023/10/31 02:19:25;;;;;;;0.63;0.63;;;12.10;99.90;;;12.08;100.00;99256.34;5243010;28;20515;-46
2023/10/31 02:21:59;;;;;;;0.55;0.55;;;12.00;99.90;;;12.03;100.00;99255.44;5241409;28;20040;-46
2023/10/31 02:24:31;;;;;;;0.52;0.52;;;12.00;99.90;;;11.98;100.00;99262.38;5237448;28;20530;-47
2023/10/31 02:27:04;;;;;;;0.88;0.88;;;12.00;99.90;;;11.93;100.00;99269.31;5253487;28;20437;-47
2023/10/31 02:29:37;;;;;;;0.60;0.52;;;11.80;99.90;;;11.90;100.00;99269.31;5242801;28;20048;-45
2023/10/31 02:32:09;;;;;;;0.50;0.47;;;11.80;99.90;;;11.84;100.00;99262.31;5240179;28;20403;-48
2023/10/31 02:34:41;;;;;;;0.57;0.57;;;11.80;99.90;;;11.81;100.00;99256.22;5245751;28;20082;-46
2023/10/31 02:37:15;;;;;;;1.30;0.65;;;11.80;99.90;;;11.80;100.00;99263.16;5244651;28;20507;-47
2023/10/31 02:39:48;;;;;;;0.70;0.60;;;11.70;99.90;;;11.78;100.00;99258.75;5243964;28;20044;-47
2023/10/31 02:42:20;;;;;;;0.60;0.60;;;11.70;99.90;;;11.76;100.00;99257.91;5242079;28;20044;-46
2023/10/31 02:44:53;;;;;;;0.60;0.60;;;11.70;99.90;;;11.72;100.00;99263.94;5245523;28;20055;-47
2023/10/31 02:47:25;;;;;;;0.57;0.43;;;11.60;99.90;;;11.66;100.00;99259.56;5244691;28;20063;-47
2023/10/31 02:49:57;;;;;;;0.43;0.43;;;11.60;99.90;;;11.59;100.00;99269.09;5259413;28;20051;-47
2023/10/31 02:52:31;;;;;;;0.60;0.60;;;11.60;99.90;;;11.54;100.00;99270.81;5243553;28;20048;-47
2023/10/31 02:55:04;;;;;;;0.60;0.50;;;11.50;99.90;;;11.52;100.00;99272.53;5234548;28;20462;-47
2023/10/31 02:57:36;;;;;;;0.82;0.63;;;11.40;99.90;;;11.53;100.00;99279.47;5236462;28;20051;-48
2023/10/31 03:00:09;;;;;;;0.60;0.60;;;11.50;99.90;;;11.53;100.00;99274.25;5240824;28;20040;-47
2023/10/31 03:02:42;;;;;;;0.65;0.63;;;11.50;99.90;;;11.53;100.00;99278.59;5240470;28;20407;-47
2023/10/31 03:05:14;;;;;;;1.52;0.90;;;11.50;99.90;;;11.50;100.00;99274.25;5244922;28;20051;-45
2023/10/31 03:07:48;;;;;;;0.77;0.57;;;11.40;99.90;;;11.47;100.00;99278.56;5260683;28;20052;-46
2023/10/31 03:10:22;;;;;;;0.57;0.55;;;11.40;99.90;;;11.41;100.00;99275.06;5245929;28;20060;-48
2023/10/31 03:12:57;;;;;;;2.10;0.63;;;11.40;99.90;;;11.37;100.00;99272.44;5243915;28;20052;-46
2023/10/31 03:15:30;;;;;;;1.23;0.57;;;11.40;99.90;;;11.36;100.00;99275.91;5245884;28;20406;-47
2023/10/31 03:18:03;;;;;;;0.85;0.70;;;11.30;99.90;;;11.35;100.00;99274.16;5247090;28;20079;-48
2023/10/31 03:20:36;;;;;;;0.75;0.75;;;11.30;99.90;;;11.35;100.00;99279.38;5248127;28;20055;-47
2023/10/31 03:23:09;;;;;;;0.95;0.80;;;11.30;99.90;;;11.34;100.00;99272.38;5242505;28;20044;-47
2023/10/31 03:25:42;;;;;;;1.27;0.57;;;11.30;99.90;;;11.33;100.00;99275.88;5238014;28;20043;-47
2023/10/31 03:28:23;;;;;;;0.70;0.50;;;11.30;99.90;;;11.33;100.00;99271.50;5239274;28;20041;-46
2023/10/31 03:30:55;;;;;;;0.80;0.70;;;11.30;99.90;;;11.36;100.00;99275.91;5255990;28;20518;-47
2023/10/31 03:33:27;;;;;;;1.02;0.93;;;11.30;99.90;;;11.37;100.00;99282.84;5243142;28;20052;-46
2023/10/31 03:36:00;;;;;;;2.08;0.70;;;11.30;99.90;;;11.38;100.00;99279.38;5245419;28;20218;-47
2023/10/31 03:38:33;;;;;;;1.17;0.82;;;11.30;99.90;;;11.39;100.00;99284.59;5264752;28;20059;-46
2023/10/31 03:41:06;;;;;;;1.10;0.52;;;11.40;99.90;;;11.42;100.00;99294.22;5244929;28;20040;-46
2023/10/31 03:43:38;;;;;;;0.68;0.63;;;11.40;99.90;;;11.43;100.00;99295.09;5256755;28;20044;-46
2023/10/31 03:46:12;;;;;;;0.93;0.80;;;11.40;99.90;;;11.47;100.00;99302.06;5258604;28;20049;-47
2023/10/31 03:48:44;;;;;;;1.05;0.73;;;11.40;99.90;;;11.49;100.00;99303.81;5263508;28;20466;-46
2023/10/31 03:51:17;;;;;;;0.75;0.75;;;11.40;99.90;;;11.51;100.00;99302.09;5247524;28;20044;-47
2023/10/31 03:53:51;;;;;;;1.45;0.63;;;11.40;99.90;;;11.56;100.00;99308.22;5247646;28;20406;-47
2023/10/31 03:56:23;;;;;;;1.17;0.80;;;11.50;99.90;;;11.60;100.00;99315.19;5230000;28;20160;-46
2023/10/31 03:58:56;;;;;;;1.02;0.68;;;11.50;99.90;;;11.64;100.00;99319.59;5245757;28;20411;-47
2023/10/31 04:01:29;;;;;;;0.63;0.55;;;11.50;99.90;;;11.66;100.00;99319.59;5260104;28;20040;-47
2023/10/31 04:04:01;;;;;;;1.40;0.57;;;11.60;99.90;;;11.67;100.00;99323.94;5242352;28;20153;-46
2023/10/31 04:06:34;;;;;;;1.50;0.73;;;11.60;99.90;;;11.69;100.00;99322.22;5253746;28;20055;-47
2023/10/31 04:09:08;;;;;;;1.45;0.70;;;11.60;99.90;;;11.69;100.00;99333.53;5246744;28;20044;-46
2023/10/31 04:11:41;;;;;;;0.55;0.50;;;11.60;99.90;;;11.69;100.00;99333.53;5239264;28;20059;-47
2023/10/31 04:14:13;;;;;;;1.92;0.50;;;11.60;99.90;;;11.71;100.00;99336.16;5242401;28;20419;-47
2023/10/31 04:16:46;;;;;;;1.95;0.80;;;11.70;99.90;;;11.74;100.00;99335.31;5236649;28;20051;-47
2023/10/31 04:19:18;;;;;;;1.05;0.50;;;11.70;99.90;;;11.76;100.00;99329.25;5244521;28;20044;-47
2023/10/31 04:21:50;;;;;;;1.38;0.70;;;11.70;99.90;;;11.79;100.00;99338.81;5246095;28;20044;-46
2023/10/31 04:24:24;;;;;;;0.50;0.50;;;11.70;99.90;;;11.82;100.00;99333.66;5246957;28;20051;-47
2023/10/31 04:26:56;;;;;;;0.70;0.50;;;11.70;99.90;;;11.85;100.00;99337.16;5233484;28;20458;-47
2023/10/31 04:29:29;;;;;;;0.65;0.57;;;11.80;99.90;;;11.85;100.00;99339.75;5239053;28;20503;-46
2023/10/31 04:32:01;;;;;;;1.13;0.70;;;11.80;99.90;;;11.87;100.00;99345.91;5246753;28;20526;-45
2023/10/31 04:34:33;;;;;;;1.33;0.63;;;11.80;99.90;;;11.88;100.00;99349.38;5242603;28;20047;-46
2023/10/31 04:37:06;;;;;;;0.65;0.40;;;11.80;99.90;;;11.90;100.00;99345.03;5245112;28;20055;-46
2023/10/31 04:39:40;;;;;;;1.40;0.70;;;11.80;99.90;;;11.92;100.00;99354.59;5236650;28;20052;-46
2023/10/31 04:42:12;;;;;;;1.15;0.57;;;11.80;99.90;;;11.93;100.00;99358.09;5247130;28;20055;-47
2023/10/31 04:44:45;;;;;;;0.90;0.70;;;11.90;99.90;;;11.96;100.00;99363.34;5246120;28;20442;-47
2023/10/31 04:47:17;;;;;;;1.30;0.80;;;11.90;99.90;;;11.96;100.00;99365.97;5244517;28;20056;-47
2023/10/31 04:49:49;;;;;;;0.65;0.57;;;11.90;99.90;;;11.96;100.00;99363.34;5246188;28;20036;-47
2023/10/31 04:52:22;;;;;;;1.38;0.77;;;11.90;99.90;;;11.97;100.00;99375.53;5246417;28;20735;-47
2023/10/31 04:54:56;;;;;;;1.05;0.95;;;11.90;99.90;;;11.99;100.00;99368.56;5244271;28;20127;-46
2023/10/31 04:57:28;;;;;;;3.45;0.88;;;11.90;99.90;;;12.00;100.00;99375.56;5242712;28;20113;-48
2023/10/31 05:00:03;;;;;;;1.80;0.85;;;11.90;99.90;;;11.99;100.00;99368.56;5240955;28;20134;-46
2023/10/31 05:02:35;;;;;;;0.90;0.70;;;11.90;99.90;;;12.02;100.00;99378.19;5242526;28;20527;-46
2023/10/31 05:05:09;;;;;;;1.08;0.77;;;12.00;99.90;;;12.02;100.00;99379.06;5242444;28;20599;-47
2023/10/31 05:07:41;;;;;;;1.02;0.70;;;11.90;99.90;;;12.04;100.00;99369.47;5234055;28;20143;-46
2023/10/31 05:10:15;;;;;;;1.20;0.73;;;12.00;99.90;;;12.08;100.00;99378.22;5236981;28;20051;-47
2023/10/31 05:12:47;;;;;;;0.80;0.52;;;12.00;99.90;;;12.09;100.00;99375.63;5238808;28;20060;-46
2023/10/31 05:15:20;;;;;;;1.95;0.52;;;12.00;99.90;;;12.10;100.00;99374.75;5231639;28;20048;-46
2023/10/31 05:17:52;;;;;;;1.95;0.50;;;12.00;99.90;;;12.11;100.00;99379.09;5236814;28;20419;-47
2023/10/31 05:20:24;;;;;;;0.52;0.52;;;12.10;99.90;;;12.11;100.00;99373.88;5237585;28;20048;-46
2023/10/31 05:23:00;;;;;;;0.60;0.50;;;12.10;99.90;;;12.12;100.00;99377.34;5237897;28;20067;-46
2023/10/31 05:25:34;;;;;;;1.05;0.85;;;12.10;99.90;;;12.12;100.00;99386.06;5245402;28;20511;-46
2023/10/31 05:28:07;;;;;;;0.65;0.60;;;12.10;99.90;;;12.13;100.00;99377.41;5242382;28;20152;-47
2023/10/31 05:30:39;;;;;;;0.50;0.50;;;12.10;99.90;;;12.14;100.00;99378.25;5243470;28;20402;-47
2023/10/31 05:33:16;;;;;;;2.22;0.73;;;12.10;99.90;;;12.12;100.00;99379.97;5246320;28;20044;-46
2023/10/31 05:35:49;;;;;;;0.80;0.70;;;12.10;99.90;;;12.09;100.00;99393.91;5242339;28;20044;-47
2023/10/31 05:38:21;;;;;;;1.20;0.73;;;12.10;99.90;;;12.09;100.00;99399.13;5241600;28;20391;-47
2023/10/31 05:40:55;;;;;;;0.82;0.70;;;12.00;99.90;;;12.07;100.00;99400.88;5245228;28;20071;-47
2023/10/31 05:43:28;;;;;;;1.40;1.00;;;12.10;99.90;;;12.06;100.00;99406.94;5245920;28;20056;-47
2023/10/31 05:46:00;;;;;;;1.25;0.70;;;12.00;99.90;;;12.04;100.00;99413.00;5251473;28;20370;-46
2023/10/31 05:48:32;;;;;;;1.08;0.75;;;12.00;99.90;;;12.03;100.00;99401.69;5240176;28;20052;-47
2023/10/31 05:51:05;;;;;;;0.90;0.77;;;12.00;99.90;;;12.04;100.00;99418.22;5245206;28;20127;-46
2023/10/31 05:53:38;;;;;;;0.73;0.73;;;12.00;99.90;;;12.05;100.00;99410.41;5248794;28;20052;-45
2023/10/31 05:56:13;;;;;;;1.05;0.90;;;12.00;99.90;;;12.05;100.00;99418.22;5241760;28;20044;-47
2023/10/31 05:58:46;;;;;;;1.00;0.80;;;12.00;99.90;;;12.07;100.00;99423.50;5238709;28;20197;-47
2023/10/31 06:01:18;;;;;;;0.80;0.73;;;12.00;99.90;;;12.06;100.00;99417.41;5245582;28;20047;-47
2023/10/31 06:03:51;;;;;;;0.77;0.65;;;12.00;99.90;;;12.05;100.00;99420.84;5238488;28;20058;-46
2023/10/31 06:06:23;;;;;;;1.90;1.00;;;12.00;99.90;;;12.06;100.00;99426.94;5241272;28;20044;-47
2023/10/31 06:08:56;;;;;;;1.08;0.93;;;12.00;99.90;;;12.05;100.00;99430.41;5262023;28;20052;-48
2023/10/31 06:11:30;;;;;;;1.55;0.93;;;12.00;99.90;;;12.04;100.00;99433.91;5256953;28;20044;-48
2023/10/31 06:14:03;;;;;;;1.35;0.93;;;12.00;99.90;;;12.05;100.00;99444.34;5243399;28;20731;-49
2023/10/31 06:16:42;;;;;;;0.93;0.90;;;12.00;99.90;;;12.05;100.00;99428.69;5236335;28;20059;-48
2023/10/31 06:19:14;;;;;;;1.17;1.02;;;12.00;99.90;;;12.07;100.00;99437.41;5246599;28;20049;-48
2023/10/31 06:21:46;;;;;;;1.35;0.93;;;12.00;99.90;;;12.11;100.00;99441.78;5239502;28;20056;-48
2023/10/31 06:24:19;;;;;;;0.82;0.80;;;12.10;99.90;;;12.11;100.00;99447.00;5235957;28;20272;-48
2023/10/31 06:26:53;;;;;;;1.00;0.73;;;12.00;99.90;;;12.09;100.00;99443.53;5240078;28;20048;-49
2023/10/31 06:29:25;;;;;;;1.05;0.80;;;12.10;99.90;;;12.11;100.00;99457.47;5257054;28;20041;-48
2023/10/31 06:31:57;;;;;;;3.50;1.30;;;12.10;99.90;;;12.13;100.00;99452.28;5256135;28;20040;-48
2023/10/31 06:34:30;;;;;;;1.55;1.00;;;12.10;99.90;;;12.13;100.00;99460.09;5244282;28;20044;-48
2023/10/31 06:37:05;;;;;;;1.13;0.82;;;12.10;99.90;;;12.11;100.00;99460.06;5245368;28;20060;-50
2023/10/31 06:39:38;;;;;;;1.77;1.05;;;12.10;99.90;;;12.08;100.00;99473.13;5249178;28;20422;-49
2023/10/31 06:42:11;;;;;;;1.95;1.02;;;12.10;99.90;;;12.07;100.00;99478.34;5258116;28;20071;-48
2023/10/31 06:44:44;;;;;;;1.10;0.90;;;12.00;99.90;;;12.09;100.00;99485.31;5245048;28;20410;-51
2023/10/31 06:47:16;;;;;;;4.13;1.88;;;12.00;99.90;;;12.11;100.00;99485.31;5239459;28;20040;-49
2023/10/31 06:49:48;;;;;;;3.25;1.90;;;12.00;99.90;;;12.08;100.00;99499.25;5264514;28;20040;-48
2023/10/31 06:52:21;;;;;;;3.30;2.10;;;12.10;99.90;;;12.08;100.00;99494.00;5245613;28;20530;-48
2023/10/31 06:54:53;;;;;;;3.78;2.63;;;12.10;99.90;;;12.06;100.00;99493.13;5243282;28;20511;-49
2023/10/31 06:57:27;;;;;;;5.03;3.65;;;12.00;99.90;;;12.07;100.00;99502.72;5241325;28;20147;-49
2023/10/31 06:59:59;;;;;;;3.97;3.35;;;12.00;99.90;;;12.08;100.00;99504.47;5248722;28;20051;-48
2023/10/31 07:02:32;;;;;;;4.22;2.70;;;12.00;99.90;;;12.08;100.00;99509.69;5243305;28;20079;-48
2023/10/31 07:05:05;;;;;;;3.50;2.97;;;12.10;99.90;;;12.09;100.00;99511.44;5249091;28;20503;-47
2023/10/31 07:07:37;;;;;;;3.40;2.55;;;12.10;99.90;;;12.09;100.00;99513.16;5248054;28;20059;-47
2023/10/31 07:10:10;;;;;;;5.40;3.90;;;12.10;99.90;;;12.08;100.00;99519.25;5248179;28;20036;-47
2023/10/31 07:12:44;;;;;;;5.60;3.92;;;12.00;99.90;;;12.08;100.00;99520.13;5251106;28;20048;-47
2023/10/31 07:15:20;;;;;;;5.32;3.47;;;12.00;99.90;;;12.13;100.00;99518.44;5242525;28;20051;-47
2023/10/31 07:17:53;;;;;;;3.78;3.38;;;12.10;99.90;;;12.13;100.00;99517.56;5246026;28;20058;-47
2023/10/31 07:20:25;;;;;;;5.38;3.65;;;12.10;99.90;;;12.13;100.00;99518.44;5238362;28;20049;-47
2023/10/31 07:22:58;;;;;;;4.00;3.05;;;12.10;99.90;;;12.16;100.00;99523.69;5238994;28;20113;-47
2023/10/31 07:25:30;;;;;;;3.67;2.30;;;12.10;99.90;;;12.19;100.00;99528.03;5238660;28;20346;-47
2023/10/31 07:28:04;;;;;;;1.90;1.63;;;12.10;99.90;;;12.25;100.00;99528.09;5244920;28;20052;-47
2023/10/31 07:30:36;;;;;;;1.75;1.58;;;12.20;99.90;;;12.29;100.00;99529.00;5263481;28;20399;-48
2023/10/31 07:33:09;;;;;;;2.05;1.52;;;12.20;99.90;;;12.35;100.00;99540.38;5255039;28;20134;-47
2023/10/31 07:35:41;;;;;;;2.05;1.50;;;12.30;99.90;;;12.41;100.00;99536.94;5245514;28;20245;-47
2023/10/31 07:38:14;;;;;;;2.60;1.65;;;12.30;99.90;;;12.43;100.00;99540.44;5247481;28;20471;-47
2023/10/31 07:40:47;;;;;;;1.55;1.33;;;12.30;99.90;;;12.47;100.00;99544.81;5240188;28;20075;-47
2023/10/31 07:43:24;;;;;;;1.65;1.25;;;12.40;99.90;;;12.55;100.00;99547.50;5240235;28;20055;-47
2023/10/31 07:45:57;;;;;;;3.75;1.65;;;12.50;99.90;;;12.58;100.00;99548.38;5243864;28;20052;-47
2023/10/31 07:48:29;;;;;;;2.20;1.60;;;12.50;99.90;;;12.62;100.00;99550.16;5247011;28;20407;-47
2023/10/31 07:51:01;;;;;;;2.03;1.48;;;12.50;99.90;;;12.66;100.00;99554.56;5242845;28;20044;-47
2023/10/31 07:53:34;;;;;;;2.50;1.33;;;12.50;99.90;;;12.71;100.00;99555.47;5247210;28;20057;-47
2023/10/31 07:56:15;;;;;;;2.17;1.60;;;12.60;99.90;;;12.75;100.00;99562.44;5249393;28;20507;-47
2023/10/31 07:58:49;;;;;;;1.98;1.58;;;12.60;99.90;;;12.78;100.00;99564.22;5234597;28;20051;-47
2023/10/31 08:01:24;;;;;;;2.65;1.52;;;12.60;99.90;;;12.81;100.00;99566.84;5242194;28;20036;-47
2023/10/31 08:03:57;;;;;;;2.67;1.63;;;12.70;99.90;;;12.83;100.00;99569.44;5244637;28;20055;-48
2023/10/31 08:06:29;;;;;;;3.80;1.63;;;12.70;99.90;;;12.85;100.00;99575.59;5246028;28;20136;-48
2023/10/31 08:09:02;;;;;;;2.13;1.33;;;12.70;99.90;;;12.85;100.00;99583.44;5243597;28;20067;-47
2023/10/31 08:11:35;;;;;;;2.25;1.40;;;12.80;99.90;;;12.88;100.00;99581.69;5236759;28;20040;-47
2023/10/31 08:14:08;;;;;;;2.53;1.20;;;12.80;99.90;;;12.94;100.00;99588.72;5241993;28;20138;-48
2023/10/31 08:16:41;;;;;;;2.80;1.30;;;12.80;99.90;;;12.99;100.00;99589.63;5243440;28;20488;-48
2023/10/31 08:19:14;;;;;;;1.75;1.02;;;12.80;99.90;;;13.05;100.00;99597.50;5234464;28;20055;-47
2023/10/31 08:21:46;;;;;;;1.55;1.15;;;12.90;99.90;;;13.14;100.00;99602.78;5245031;28;20093;-48
2023/10/31 08:24:19;;;;;;;1.67;1.13;;;13.00;99.90;;;13.20;100.00;99600.22;5247263;28;20044;-47
2023/10/31 08:26:51;;;;;;;1.55;1.20;;;13.00;99.90;;;13.20;100.00;99600.22;5246796;28;20058;-48
2023/10/31 08:29:28;;;;;;;2.35;1.10;;;13.00;99.90;;;13.30;100.00;99603.75;5247367;28;20047;-48
2023/10/31 08:32:01;;;;;;;2.20;1.23;;;13.10;99.90;;;13.49;100.00;99589.00;5239233;28;20043;-47
2023/10/31 08:34:33;;;;;;;1.92;1.15;;;13.30;99.90;;;13.66;100.00;99607.41;5247129;28;20072;-47
2023/10/31 08:37:05;;;;;;;1.70;1.40;;;13.40;99.90;;;13.76;100.00;99615.31;5245523;28;20072;-47
2023/10/31 08:39:38;;;;;;;1.35;1.25;;;13.50;99.90;;;13.88;100.00;99608.34;5241305;28;20327;-47
2023/10/31 08:42:10;;;;;;;1.20;1.10;;;13.60;99.90;;;14.13;100.00;99620.63;5242589;28;20044;-47
2023/10/31 08:44:44;;;;;;;1.58;1.15;;;13.80;99.90;;;14.33;100.00;99624.13;5245305;28;20048;-47
2023/10/31 08:47:17;;;;;;;3.15;1.17;;;14.00;99.90;;;14.37;100.00;99627.66;5237653;28;20052;-47
2023/10/31 08:49:50;;;;;;;2.03;1.10;;;14.10;99.90;;;14.32;100.00;99624.16;5240242;28;20051;-47
2023/10/31 08:52:22;;;;;;;1.60;1.35;;;14.10;99.90;;;14.26;100.00;99632.88;5250526;28;20052;-47
2023/10/31 08:54:55;;;;;;;1.38;1.00;;;14.10;99.90;;;14.20;100.00;99648.59;5244249;28;20064;-47
2023/10/31 08:57:30;;;;;;;1.30;1.13;;;14.00;99.90;;;14.13;100.00;99652.06;5245879;28;20048;-48
2023/10/31 09:00:05;;;;;;;1.33;0.93;;;14.00;99.90;;;14.06;100.00;99648.56;5253785;28;20041;-48
2023/10/31 09:02:38;;;;;;;0.82;0.80;;;13.90;99.90;;;13.99;100.00;99643.31;5255936;28;20457;-47
2023/10/31 09:05:10;;;;;;;1.75;0.85;;;13.80;99.90;;;13.96;100.00;99652.03;5257690;28;20040;-48
2023/10/31 09:07:43;;;;;;;1.77;1.02;;;13.80;99.90;;;13.91;100.00;99655.50;5237881;28;20072;-48
2023/10/31 09:10:15;;;;;;;1.23;1.00;;;13.80;99.90;;;13.86;100.00;99663.34;5240910;28;20036;-47
2023/10/31 09:12:47;;;;;;;2.30;0.95;;;13.70;99.90;;;13.80;100.00;99669.44;5245338;28;20142;-47
2023/10/31 09:15:21;;;;;;;1.73;1.08;;;13.60;99.90;;;13.76;100.00;99667.69;5246421;28;20418;-47
2023/10/31 09:17:54;;;;;;;1.52;0.90;;;13.60;99.90;;;13.72;100.00;99671.16;5249114;28;20113;-48
2023/10/31 09:20:26;;;;;;;1.85;1.02;;;13.60;99.90;;;13.66;100.00;99676.34;5246304;28;20040;-48
2023/10/31 09:22:58;;;;;;;0.82;0.75;;;13.60;99.90;;;13.65;100.00;99678.97;5244916;28;20051;-47
2023/10/31 09:25:31;;;;;;;1.85;0.93;;;13.50;99.90;;;13.63;100.00;99676.34;5247001;28;20054;-47
2023/10/31 09:28:03;;;;;;;0.82;0.82;;;13.50;99.90;;;13.62;100.00;99681.56;5245052;28;20052;-47
2023/10/31 09:30:37;;;;;;;1.02;0.90;;;13.50;99.90;;;13.62;100.00;99687.66;5246382;28;20051;-47
2023/10/31 09:33:10;;;;;;;0.80;0.73;;;13.50;99.90;;;13.64;100.00;99688.56;5246169;28;20075;-48
2023/10/31 09:35:43;;;;;;;1.10;0.75;;;13.50;99.90;;;13.67;100.00;99696.44;5246824;28;20048;-48
2023/10/31 09:38:15;;;;;;;1.20;0.75;;;13.50;99.90;;;13.67;100.00;99693.81;5241851;28;20043;-47
2023/10/31 09:40:48;;;;;;;1.50;0.93;;;13.50;99.90;;;13.64;100.00;99701.66;5243235;28;20045;-47
2023/10/31 09:43:23;;;;;;;3.80;1.08;;;13.50;99.90;;;13.62;100.00;99705.13;5246919;28;20159;-47
2023/10/31 09:45:58;;;;;;;1.02;0.88;;;13.50;99.90;;;13.61;100.00;99714.72;5243709;28;20051;-47
2023/10/31 09:48:31;;;;;;;0.77;0.68;;;13.50;99.90;;;13.62;100.00;99715.59;5238465;28;20086;-48
2023/10/31 09:51:05;;;;;;;1.02;0.63;;;13.50;99.90;;;13.62;100.00;99720.84;5240669;28;20437;-48
2023/10/31 09:53:43;;;;;;;1.60;0.63;;;13.50;99.90;;;13.61;100.00;99714.72;5246791;28;20058;-48
2023/10/31 09:56:17;;;;;;;0.88;0.70;;;13.50;99.90;;;13.61;100.00;99713.84;5246080;28;20044;-48
2023/10/31 09:58:49;;;;;;;0.73;0.70;;;13.50;99.90;;;13.61;100.00;99719.09;5248611;28;20044;-48
2023/10/31 10:01:23;;;;;;;0.95;0.63;;;13.50;99.90;;;13.61;100.00;99740.03;5245733;28;20044;-48
2023/10/31 10:03:56;;;;;;;1.55;0.63;;;13.40;99.90;;;13.62;100.00;99734.81;5241909;28;20048;-48
2023/10/31 10:06:29;;;;;;;2.05;0.63;;;13.50;99.90;;;13.63;100.00;99733.06;5243396;28;20055;-48
2023/10/31 10:09:03;;;;;;;1.38;0.63;;;13.50;99.90;;;13.64;100.00;99737.47;5245718;28;20077;-48
2023/10/31 10:11:40;;;;;;;0.60;0.55;;;13.50;99.90;;;13.74;100.00;99753.22;5238773;28;20044;-48
2023/10/31 10:14:13;;;;;;;0.80;0.73;;;13.50;99.90;;;13.73;100.00;99740.97;5244087;28;20055;-48
2023/10/31 10:16:50;;;;;;;0.90;0.63;;;13.60;99.90;;;13.75;100.00;99749.72;5241368;28;20059;-48
2023/10/31 10:19:24;;;;;;;1.77;0.80;;;13.60;99.90;;;13.78;100.00;99749.75;5236994;28;20440;-48
2023/10/31 10:21:59;;;;;;;0.70;0.60;;;13.60;99.90;;;13.85;100.00;99751.53;5244505;28;20048;-48
2023/10/31 10:24:32;;;;;;;1.48;0.73;;;13.70;99.90;;;13.97;100.00;99749.84;5242155;28;20346;-48
2023/10/31 10:27:04;;;;;;;1.30;0.80;;;13.80;99.90;;;14.31;100.00;99766.56;5244186;28;20068;-48
2023/10/31 10:29:39;;;;;;;2.75;0.90;;;13.90;99.90;;;14.72;100.00;99758.81;5242441;28;20060;-48
2023/10/31 10:32:13;;;;;;;1.77;0.60;;;14.30;99.90;;;15.05;100.00;99764.97;5243895;28;20051;-48
2023/10/31 10:34:47;;;;;;;0.68;0.63;;;14.60;99.90;;;15.48;100.00;99764.09;5239178;28;20089;-48
2023/10/31 10:37:20;;;;;;;2.25;0.70;;;14.90;99.90;;;15.98;100.00;99759.63;5252539;28;20051;-49